Terminal Aerodrome Forecast
Issued by NWS

Home | Current Version | Previous Version | Graphics & Text | Print | Product List | Glossary On
Versions: 1 2 3 4 5 6 7 8 9 10 11 12 13 14 15 16 17 18 19 20 21 22 23
000
FTUS43 KGRB 230800 AAA
TAFAUW
TAF AMD
KAUW 230851Z 2309/2406 14003KT P6SM BKN080
      TEMPO 2310/2311 -SHRA BKN040
     FM231200 14005KT P6SM VCSH SCT025 OVC040
     FM231600 15005KT 5SM -SHRA BR OVC015
     FM232200 20005KT P6SM OVC012
     FM240200 26003KT 5SM BR OVC009=

USA.gov is the U.S. government's official web portal to all federal, state and local government web resources and services.